createdAt,value
2023-04-10T00:00:33.014Z,57.65
2023-04-10T00:03:04.151Z,57.47
2023-04-10T00:05:31.754Z,57.04
2023-04-10T00:07:58.606Z,56.36
2023-04-10T00:10:26.668Z,56.46
2023-04-10T00:12:54.259Z,57.38
2023-04-10T00:15:21.265Z,56.30
2023-04-10T00:17:50.666Z,56.84
2023-04-10T00:20:17.895Z,57.24
2023-04-10T00:22:44.868Z,56.45
2023-04-10T00:25:11.854Z,57.05
2023-04-10T00:27:38.980Z,57.72
2023-04-10T00:30:06.733Z,56.63
2023-04-10T00:32:33.746Z,57.11
2023-04-10T00:35:01.733Z,57.88
2023-04-10T00:37:28.728Z,57.05
2023-04-10T00:39:55.664Z,56.66
2023-04-10T00:42:22.621Z,56.68
2023-04-10T00:44:49.492Z,57.32
2023-04-10T00:47:17.125Z,56.98
2023-04-10T00:49:44.984Z,57.66
2023-04-10T00:52:12.029Z,57.30
2023-04-10T00:54:40.252Z,57.37
2023-04-10T00:57:07.654Z,57.29
2023-04-10T00:59:35.949Z,56.82
2023-04-10T01:02:03.420Z,56.81
2023-04-10T01:04:33.140Z,57.61
2023-04-10T01:07:09.115Z,57.45
2023-04-10T01:09:49.004Z,57.39
2023-04-10T01:12:16.405Z,58.15
2023-04-10T01:14:49.196Z,58.26
2023-04-10T01:17:28.207Z,56.80
2023-04-10T01:20:12.656Z,58.30
2023-04-10T01:23:08.709Z,57.95
2023-04-10T01:25:56.834Z,58.06
2023-04-10T01:28:33.637Z,56.96
2023-04-10T01:31:02.750Z,58.56
2023-04-10T01:34:00.023Z,58.61
2023-04-10T01:36:32.057Z,57.93
2023-04-10T01:39:00.277Z,58.07
2023-04-10T01:41:28.783Z,57.84
2023-04-10T01:43:59.460Z,58.70
2023-04-10T01:46:29.619Z,58.08
2023-04-10T01:49:01.997Z,57.44
2023-04-10T01:51:31.196Z,57.71
2023-04-10T01:54:02.539Z,58.51
2023-04-10T01:56:30.184Z,57.93
2023-04-10T01:58:57.369Z,58.59
2023-04-10T02:01:29.680Z,58.35
2023-04-10T02:03:59.335Z,58.79
2023-04-10T02:06:35.558Z,57.73
2023-04-10T02:09:12.128Z,58.44
2023-04-10T02:11:47.970Z,58.19
2023-04-10T02:14:18.188Z,59.12
2023-04-10T02:16:45.703Z,58.20
2023-04-10T02:19:13.212Z,59.20
2023-04-10T02:21:42.202Z,58.74
2023-04-10T02:24:09.094Z,58.98
2023-04-10T02:26:50.458Z,59.25
2023-04-10T02:29:17.967Z,59.00
2023-04-10T02:31:46.207Z,58.44
2023-04-10T02:34:14.786Z,57.95
2023-04-10T02:36:42.117Z,59.38
2023-04-10T02:39:11.525Z,59.28
2023-04-10T02:41:47.608Z,58.60
2023-04-10T02:44:14.971Z,58.91
2023-04-10T02:46:42.926Z,58.46
2023-04-10T02:49:11.459Z,58.22
2023-04-10T02:51:38.713Z,59.46
2023-04-10T02:54:06.003Z,59.16
2023-04-10T02:56:35.288Z,58.75
2023-04-10T02:59:02.346Z,59.00
2023-04-10T03:01:30.957Z,57.94
2023-04-10T03:03:58.987Z,59.62
2023-04-10T03:06:32.388Z,59.32
2023-04-10T03:08:59.595Z,58.85
2023-04-10T03:11:27.700Z,59.48
2023-04-10T03:13:55.744Z,59.59
2023-04-10T03:16:23.154Z,58.94
2023-04-10T03:18:50.070Z,59.41
2023-04-10T03:21:17.301Z,59.59
2023-04-10T03:23:44.207Z,58.38
2023-04-10T03:26:11.335Z,59.02
2023-04-10T03:28:39.818Z,58.47
2023-04-10T03:31:09.887Z,58.36
2023-04-10T03:33:37.112Z,58.77
2023-04-10T03:36:05.259Z,58.81
2023-04-10T03:38:33.621Z,58.75
2023-04-10T03:41:00.774Z,58.79
2023-04-10T03:43:33.254Z,59.29
2023-04-10T03:46:02.617Z,59.03
2023-04-10T03:48:30.699Z,59.66
2023-04-10T03:50:58.522Z,59.08
2023-04-10T03:53:25.670Z,59.62
2023-04-10T03:55:54.121Z,59.20
2023-04-10T03:58:22.821Z,58.71
2023-04-10T04:00:51.199Z,59.84
2023-04-10T04:03:26.762Z,58.97
2023-04-10T04:05:59.961Z,58.47
2023-04-10T04:08:32.486Z,58.56
2023-04-10T04:11:08.377Z,59.53
2023-04-10T04:13:42.813Z,59.99
2023-04-10T04:16:17.075Z,58.85
2023-04-10T04:19:10.356Z,58.64
2023-04-10T04:21:50.532Z,59.80
2023-04-10T04:24:36.080Z,60.11
2023-04-10T04:27:14.486Z,59.01
2023-04-10T04:30:02.776Z,59.09
2023-04-10T04:32:46.958Z,59.80
2023-04-10T04:35:32.482Z,59.01
2023-04-10T04:38:20.415Z,59.22
2023-04-10T04:41:13.692Z,59.99
2023-04-10T04:44:02.558Z,60.37
2023-04-10T04:46:48.335Z,60.26
2023-04-10T04:49:24.840Z,59.23
2023-04-10T04:52:14.571Z,58.93
2023-04-10T04:54:45.493Z,59.45
2023-04-10T04:57:31.022Z,60.69
2023-04-10T05:00:19.938Z,60.49
2023-04-10T05:02:55.845Z,60.12
2023-04-10T05:05:32.379Z,60.85
2023-04-10T05:08:34.713Z,59.70
2023-04-10T05:11:23.066Z,59.94
2023-04-10T05:13:58.845Z,59.45
2023-04-10T05:16:43.754Z,59.91
2023-04-10T05:19:19.430Z,60.28
2023-04-10T05:21:49.376Z,59.67
2023-04-10T05:24:42.480Z,59.81
2023-04-10T05:27:29.828Z,60.95
2023-04-10T05:30:26.093Z,60.21
2023-04-10T05:33:11.086Z,61.21
2023-04-10T05:36:02.594Z,60.81
2023-04-10T05:38:40.438Z,59.78
2023-04-10T05:41:15.375Z,60.17
2023-04-10T05:43:59.822Z,60.92
2023-04-10T05:46:52.333Z,59.90
2023-04-10T05:49:45.761Z,60.54
2023-04-10T05:52:18.473Z,60.62
2023-04-10T05:55:11.439Z,60.26
2023-04-10T05:57:54.674Z,60.69
2023-04-10T06:00:50.639Z,59.93
2023-04-10T06:03:36.583Z,60.25
2023-04-10T06:06:04.202Z,60.05
2023-04-10T06:08:32.217Z,61.57
2023-04-10T06:10:59.572Z,61.56
2023-04-10T06:13:27.745Z,60.43
2023-04-10T06:15:58.881Z,60.44
2023-04-10T06:18:26.440Z,60.55
2023-04-10T06:20:53.629Z,60.84
2023-04-10T06:23:21.197Z,60.31
2023-04-10T06:25:48.132Z,60.69
2023-04-10T06:28:15.527Z,60.82
2023-04-10T06:30:44.905Z,61.02
2023-04-10T06:33:11.981Z,61.10
2023-04-10T06:35:43.123Z,61.64
2023-04-10T06:38:10.257Z,60.12
2023-04-10T06:40:37.798Z,60.86
2023-04-10T06:43:05.012Z,60.08
2023-04-10T06:45:38.384Z,60.20
2023-04-10T06:48:05.913Z,61.58
2023-04-10T06:50:33.536Z,60.96
2023-04-10T06:53:00.734Z,60.96
2023-04-10T06:55:27.766Z,60.66
2023-04-10T06:57:56.518Z,61.36
2023-04-10T07:00:23.970Z,60.79
2023-04-10T07:02:51.100Z,60.30
2023-04-10T07:05:18.025Z,61.10
2023-04-10T07:07:45.105Z,61.23
2023-04-10T07:10:13.151Z,59.86
2023-04-10T07:12:39.989Z,60.10
2023-04-10T07:15:08.144Z,60.27
2023-04-10T07:17:35.512Z,60.15
2023-04-10T07:20:02.466Z,60.33
2023-04-10T07:22:29.741Z,59.64
2023-04-10T07:24:56.587Z,60.11
2023-04-10T07:27:24.850Z,60.44
2023-04-10T07:29:55.323Z,60.42
2023-04-10T07:32:23.274Z,59.80
2023-04-10T07:34:50.468Z,60.21
2023-04-10T07:37:18.175Z,59.58
2023-04-10T07:39:45.310Z,59.97
2023-04-10T07:42:12.184Z,60.26
2023-04-10T07:44:39.428Z,60.35
2023-04-10T07:47:06.577Z,59.43
2023-04-10T07:49:33.489Z,60.76
2023-04-10T07:52:00.669Z,60.16
2023-04-10T07:54:27.774Z,59.75
2023-04-10T07:56:54.730Z,60.42
2023-04-10T07:59:22.014Z,60.31
2023-04-10T08:01:48.985Z,60.34
2023-04-10T08:04:16.224Z,59.34
2023-04-10T08:06:43.329Z,60.20
2023-04-10T08:09:10.339Z,59.18
2023-04-10T08:11:38.708Z,60.18
2023-04-10T08:14:07.185Z,59.86
2023-04-10T08:16:36.099Z,59.74
2023-04-10T08:19:03.498Z,59.85
2023-04-10T08:21:32.259Z,59.72
2023-04-10T08:24:01.508Z,60.24
2023-04-10T08:26:29.482Z,59.13
2023-04-10T08:28:58.604Z,59.92
2023-04-10T08:31:28.102Z,59.18
2023-04-10T08:33:55.806Z,59.18
2023-04-10T08:36:23.039Z,60.01
2023-04-10T08:38:50.142Z,59.72
2023-04-10T08:41:19.031Z,59.30
2023-04-10T08:43:46.641Z,58.63
2023-04-10T08:46:17.245Z,59.38
2023-04-10T08:48:53.995Z,59.78
2023-04-10T08:51:26.309Z,59.15
2023-04-10T08:54:06.177Z,58.74
2023-04-10T08:56:35.113Z,59.43
2023-04-10T08:59:03.569Z,59.04
2023-04-10T09:01:31.541Z,58.70
2023-04-10T09:03:59.429Z,58.60
2023-04-10T09:06:27.324Z,58.54
2023-04-10T09:08:54.259Z,58.89
2023-04-10T09:11:21.520Z,57.78
2023-04-10T09:13:48.512Z,58.04
2023-04-10T09:16:15.737Z,58.11
2023-04-10T09:18:51.525Z,58.03
2023-04-10T09:21:20.703Z,58.51
2023-04-10T09:23:48.684Z,57.68
2023-04-10T09:26:27.895Z,57.57
2023-04-10T09:29:02.988Z,57.93
2023-04-10T09:31:37.512Z,58.00
2023-04-10T09:34:14.473Z,57.82
2023-04-10T09:36:43.204Z,57.41
2023-04-10T09:39:12.280Z,56.90
2023-04-10T09:41:49.899Z,57.33
2023-04-10T09:44:20.100Z,57.17
2023-04-10T09:46:47.198Z,56.99
2023-04-10T09:49:14.140Z,56.58
2023-04-10T09:51:41.122Z,56.36
2023-04-10T09:54:08.168Z,55.63
2023-04-10T09:56:38.554Z,55.61
2023-04-10T09:59:07.580Z,55.11
2023-04-10T10:01:37.609Z,55.33
2023-04-10T10:04:05.461Z,55.58
2023-04-10T10:06:33.354Z,55.03
2023-04-10T10:09:05.311Z,55.27
2023-04-10T10:11:36.267Z,54.14
2023-04-10T10:14:09.367Z,53.64
2023-04-10T10:16:50.373Z,54.34
2023-04-10T10:19:31.477Z,53.26
2023-04-10T10:22:01.669Z,53.01
2023-04-10T10:24:31.690Z,52.38
2023-04-10T10:27:01.812Z,53.10
2023-04-10T10:29:32.602Z,52.58
2023-04-10T10:32:00.598Z,52.66
2023-04-10T10:34:28.287Z,51.69
2023-04-10T10:36:55.525Z,51.53
2023-04-10T10:40:08.175Z,51.32
2023-04-10T10:42:53.111Z,52.29
2023-04-10T10:45:30.353Z,51.90
2023-04-10T10:47:57.437Z,51.05
2023-04-10T10:50:24.995Z,50.64
2023-04-10T10:52:53.957Z,51.45
2023-04-10T10:55:24.889Z,51.37
2023-04-10T10:57:56.384Z,50.55
2023-04-10T11:00:25.132Z,49.87
2023-04-10T11:03:13.361Z,50.40
2023-04-10T11:06:02.401Z,50.43
2023-04-10T11:08:45.870Z,50.45
2023-04-10T11:11:21.885Z,49.30
2023-04-10T11:13:52.236Z,49.34
2023-04-10T11:16:21.369Z,49.07
2023-04-10T11:19:02.743Z,49.70
2023-04-10T11:21:57.187Z,49.79
2023-04-10T11:24:24.212Z,48.21
2023-04-10T11:26:51.375Z,48.13
2023-04-10T11:29:18.704Z,48.57
2023-04-10T11:31:56.548Z,48.01
2023-04-10T11:34:23.791Z,47.53
2023-04-10T11:36:50.987Z,47.53
2023-04-10T11:39:19.176Z,47.43
2023-04-10T11:41:53.353Z,47.68
2023-04-10T11:44:39.620Z,47.56
2023-04-10T11:47:06.870Z,48.29
2023-04-10T11:49:34.777Z,48.05
2023-04-10T11:52:01.865Z,46.44
2023-04-10T11:54:29.883Z,47.42
2023-04-10T11:56:58.298Z,47.17
2023-04-10T11:59:25.952Z,46.78
2023-04-10T12:01:56.094Z,46.31
2023-04-10T12:04:24.372Z,46.28
2023-04-10T12:06:53.134Z,45.91
2023-04-10T12:09:21.642Z,46.42
2023-04-10T12:11:53.148Z,46.51
2023-04-10T12:14:22.140Z,46.62
2023-04-10T12:16:52.876Z,46.62
2023-04-10T12:19:20.767Z,45.51
2023-04-10T12:21:47.814Z,46.58
2023-04-10T12:24:42.694Z,46.92
2023-04-10T12:27:19.534Z,45.88
2023-04-10T12:29:47.274Z,46.15
2023-04-10T12:32:14.304Z,45.55
2023-04-10T12:34:41.308Z,45.73
2023-04-10T12:37:11.415Z,45.55
2023-04-10T12:39:38.420Z,45.83
2023-04-10T12:42:16.613Z,45.34
2023-04-10T12:45:00.444Z,45.35
2023-04-10T12:47:29.286Z,45.34
2023-04-10T12:50:07.791Z,45.59
2023-04-10T12:52:35.768Z,46.03
2023-04-10T12:55:13.594Z,46.01
2023-04-10T12:57:42.578Z,45.48
2023-04-10T13:00:12.795Z,45.46
2023-04-10T13:02:41.034Z,45.61
2023-04-10T13:05:09.520Z,46.21
2023-04-10T13:07:37.390Z,45.86
2023-04-10T13:10:05.834Z,45.24
2023-04-10T13:12:34.972Z,45.19
2023-04-10T13:15:02.919Z,45.97
2023-04-10T13:17:30.024Z,46.16
2023-04-10T13:19:57.016Z,46.15
2023-04-10T13:22:23.947Z,45.83
2023-04-10T13:24:50.995Z,45.75
2023-04-10T13:27:18.004Z,45.35
2023-04-10T13:29:44.985Z,45.58
2023-04-10T13:32:11.911Z,45.06
2023-04-10T13:34:38.836Z,46.03
2023-04-10T13:37:05.881Z,46.02
2023-04-10T13:39:32.925Z,45.24
2023-04-10T13:41:59.992Z,46.17
2023-04-10T13:44:26.913Z,46.05
2023-04-10T13:46:53.896Z,45.75
2023-04-10T13:49:22.338Z,46.47
2023-04-10T13:51:49.313Z,45.97
2023-04-10T13:54:20.122Z,46.02
2023-04-10T13:56:47.239Z,46.05
2023-04-10T13:59:14.502Z,46.88
2023-04-10T14:01:41.466Z,46.46
2023-04-10T14:04:08.699Z,46.46
2023-04-10T14:06:35.962Z,46.62
2023-04-10T14:09:02.989Z,45.99
2023-04-10T14:11:30.442Z,46.04
2023-04-10T14:13:57.321Z,46.26
2023-04-10T14:16:24.361Z,46.43
2023-04-10T14:18:51.321Z,46.83
2023-04-10T14:21:20.433Z,46.50
2023-04-10T14:23:47.957Z,47.59
2023-04-10T14:26:14.928Z,47.35
2023-04-10T14:28:42.529Z,46.91
2023-04-10T14:31:09.549Z,46.73
2023-04-10T14:33:36.537Z,47.04
2023-04-10T14:36:03.758Z,47.75
2023-04-10T14:38:30.789Z,47.80
2023-04-10T14:40:58.052Z,46.98
2023-04-10T14:43:25.090Z,47.56
2023-04-10T14:45:51.928Z,47.29
2023-04-10T14:48:21.312Z,48.02
2023-04-10T14:50:49.521Z,47.61
2023-04-10T14:53:16.888Z,47.67
2023-04-10T14:55:43.887Z,47.30
2023-04-10T14:58:11.368Z,47.67
2023-04-10T15:00:38.343Z,47.92
2023-04-10T15:03:06.505Z,49.01
2023-04-10T15:05:33.668Z,48.33
2023-04-10T15:08:00.709Z,49.01
2023-04-10T15:10:33.156Z,49.20
2023-04-10T15:13:00.107Z,49.75
2023-04-10T15:15:26.937Z,49.84
2023-04-10T15:17:54.434Z,49.72
2023-04-10T15:20:22.782Z,49.76
2023-04-10T15:22:49.701Z,49.87
2023-04-10T15:25:16.791Z,49.96
2023-04-10T15:27:43.619Z,50.31
2023-04-10T15:30:11.102Z,50.42
2023-04-10T15:32:38.429Z,50.50
2023-04-10T15:35:06.244Z,50.13
2023-04-10T15:37:35.078Z,50.01
2023-04-10T15:40:03.993Z,49.99
2023-04-10T15:42:30.817Z,50.54
2023-04-10T15:44:57.757Z,50.44
2023-04-10T15:47:24.766Z,50.11
2023-04-10T15:49:51.654Z,50.43
2023-04-10T15:52:18.570Z,50.95
2023-04-10T15:54:45.668Z,50.48
2023-04-10T15:57:12.581Z,50.97
2023-04-10T15:59:39.568Z,51.12
2023-04-10T16:02:06.659Z,51.85
2023-04-10T16:04:35.126Z,51.50
2023-04-10T16:07:02.577Z,51.41
2023-04-10T16:09:30.694Z,51.43
2023-04-10T16:11:57.937Z,51.83
2023-04-10T16:14:24.930Z,51.67
2023-04-10T16:16:51.940Z,51.67
2023-04-10T16:19:19.107Z,51.48
2023-04-10T16:21:46.154Z,51.57
2023-04-10T16:24:13.036Z,52.12
2023-04-10T16:26:39.869Z,51.95
2023-04-10T16:29:06.805Z,51.91
2023-04-10T16:31:33.825Z,52.22
2023-04-10T16:34:01.378Z,52.31
2023-04-10T16:36:28.317Z,52.72
2023-04-10T16:38:55.289Z,52.75
2023-04-10T16:41:22.864Z,52.75
2023-04-10T16:43:49.869Z,52.84
2023-04-10T16:46:19.116Z,52.87
2023-04-10T16:48:46.187Z,52.84
2023-04-10T16:51:17.651Z,53.22
2023-04-10T16:53:44.970Z,53.12
2023-04-10T16:56:12.107Z,53.66
2023-04-10T16:58:41.208Z,53.44
2023-04-10T17:01:25.339Z,53.57
2023-04-10T17:03:53.463Z,53.57
2023-04-10T17:06:20.615Z,53.75
2023-04-10T17:08:47.465Z,54.03
2023-04-10T17:11:14.705Z,53.96
2023-04-10T17:13:42.340Z,54.37
2023-04-10T17:16:09.831Z,54.65
2023-04-10T17:18:37.171Z,54.30
2023-04-10T17:21:04.381Z,54.95
2023-04-10T17:23:31.374Z,54.82
2023-04-10T17:25:58.214Z,55.17
2023-04-10T17:28:25.157Z,54.99
2023-04-10T17:30:52.089Z,55.23
2023-04-10T17:33:19.282Z,55.41
2023-04-10T17:35:46.344Z,55.95
2023-04-10T17:38:13.476Z,55.44
2023-04-10T17:40:41.200Z,55.90
2023-04-10T17:43:08.803Z,56.31
2023-04-10T17:45:39.859Z,56.60
2023-04-10T17:48:07.149Z,56.43
2023-04-10T17:50:34.283Z,56.41
2023-04-10T17:53:01.212Z,56.83
2023-04-10T17:55:28.518Z,56.88
2023-04-10T17:57:57.914Z,56.36
2023-04-10T18:00:25.039Z,56.41
2023-04-10T18:02:58.003Z,56.42
2023-04-10T18:05:25.530Z,57.57
2023-04-10T18:07:52.895Z,57.51
2023-04-10T18:10:19.792Z,57.26
2023-04-10T18:12:46.937Z,58.09
2023-04-10T18:15:16.592Z,57.11
2023-04-10T18:17:43.569Z,58.40
2023-04-10T18:20:10.971Z,57.66
2023-04-10T18:22:37.899Z,57.46
2023-04-10T18:25:05.775Z,57.41
2023-04-10T18:27:34.788Z,58.63
2023-04-10T18:30:02.081Z,58.45
2023-04-10T18:32:29.136Z,58.77
2023-04-10T18:34:56.194Z,58.81
2023-04-10T18:37:23.049Z,59.04
2023-04-10T18:39:49.904Z,58.32
2023-04-10T18:42:16.899Z,58.79
2023-04-10T18:44:43.761Z,58.76
2023-04-10T18:47:11.197Z,58.57
2023-04-10T18:49:38.206Z,58.95
2023-04-10T18:52:05.147Z,58.68
2023-04-10T18:54:33.846Z,59.98
2023-04-10T18:57:01.142Z,59.28
2023-04-10T18:59:28.479Z,59.44
2023-04-10T19:01:56.261Z,58.97
2023-04-10T19:04:23.446Z,59.31
2023-04-10T19:06:51.337Z,59.80
2023-04-10T19:09:18.583Z,60.15
2023-04-10T19:11:45.677Z,60.17
2023-04-10T19:14:12.586Z,59.12
2023-04-10T19:16:39.591Z,60.27
2023-04-10T19:19:06.855Z,59.72
2023-04-10T19:21:34.531Z,59.51
2023-04-10T19:24:01.482Z,59.16
2023-04-10T19:26:28.490Z,60.80
2023-04-10T19:28:55.539Z,60.17
2023-04-10T19:31:23.933Z,59.44
2023-04-10T19:33:51.046Z,59.98
2023-04-10T19:36:18.679Z,59.69
2023-04-10T19:38:48.936Z,60.65
2023-04-10T19:41:16.485Z,60.73
2023-04-10T19:43:43.779Z,60.75
2023-04-10T19:46:20.709Z,60.60
2023-04-10T19:48:48.916Z,60.92
2023-04-10T19:51:15.978Z,60.84
2023-04-10T19:53:43.261Z,60.22
2023-04-10T19:56:10.247Z,61.63
2023-04-10T19:58:41.143Z,61.68
2023-04-10T20:01:09.059Z,61.73
2023-04-10T20:03:37.134Z,60.81
2023-04-10T20:06:07.475Z,61.67
2023-04-10T20:08:35.659Z,62.14
2023-04-10T20:11:06.181Z,61.20
2023-04-10T20:13:34.513Z,61.11
2023-04-10T20:16:01.949Z,62.34
2023-04-10T20:18:28.926Z,62.41
2023-04-10T20:20:55.968Z,61.92
2023-04-10T20:23:22.901Z,62.70
2023-04-10T20:25:49.944Z,61.36
2023-04-10T20:28:17.624Z,62.49
2023-04-10T20:30:44.562Z,61.82
2023-04-10T20:33:11.478Z,63.08
2023-04-10T20:35:38.685Z,61.79
2023-04-10T20:38:05.941Z,63.28
2023-04-10T20:40:33.145Z,63.33
2023-04-10T20:43:00.051Z,62.55
2023-04-10T20:45:27.003Z,63.08
2023-04-10T20:47:56.458Z,62.72
2023-04-10T20:50:23.711Z,62.57
2023-04-10T20:52:51.047Z,62.60
2023-04-10T20:55:18.283Z,62.51
2023-04-10T20:57:45.334Z,63.31
2023-04-10T21:00:13.045Z,63.24
2023-04-10T21:02:40.139Z,62.72
2023-04-10T21:05:07.458Z,63.93
2023-04-10T21:07:34.370Z,62.55
2023-04-10T21:10:01.403Z,64.02
2023-04-10T21:12:28.264Z,63.05
2023-04-10T21:14:55.305Z,62.68
2023-04-10T21:17:22.457Z,62.85
2023-04-10T21:19:49.426Z,62.86
2023-04-10T21:22:16.741Z,64.15
2023-04-10T21:24:43.693Z,63.78
2023-04-10T21:27:11.159Z,63.25
2023-04-10T21:29:38.154Z,63.07
2023-04-10T21:32:05.301Z,62.97
2023-04-10T21:34:32.254Z,63.67
2023-04-10T21:36:59.548Z,64.36
2023-04-10T21:39:26.482Z,64.05
2023-04-10T21:41:53.604Z,63.32
2023-04-10T21:44:21.093Z,64.53
2023-04-10T21:46:48.170Z,64.46
2023-04-10T21:49:15.421Z,63.81
2023-04-10T21:51:42.561Z,63.40
2023-04-10T21:54:09.549Z,64.16
2023-04-10T21:56:38.770Z,63.97
2023-04-10T21:59:05.705Z,65.00
2023-04-10T22:01:33.981Z,65.11
2023-04-10T22:04:01.193Z,64.47
2023-04-10T22:06:28.269Z,64.01
2023-04-10T22:08:55.531Z,63.75
2023-04-10T22:11:22.574Z,64.14
2023-04-10T22:13:49.659Z,64.33
2023-04-10T22:16:16.661Z,64.44
2023-04-10T22:18:43.528Z,64.21
2023-04-10T22:21:10.795Z,63.92
2023-04-10T22:23:37.948Z,65.39
2023-04-10T22:26:05.075Z,64.01
2023-04-10T22:28:32.157Z,64.03
2023-04-10T22:30:59.274Z,65.04
2023-04-10T22:33:26.201Z,65.47
2023-04-10T22:35:53.769Z,65.49
2023-04-10T22:38:20.875Z,64.21
2023-04-10T22:40:47.783Z,64.66
2023-04-10T22:43:14.872Z,64.93
2023-04-10T22:45:42.112Z,64.82
2023-04-10T22:48:09.096Z,65.79
2023-04-10T22:50:36.647Z,65.33
2023-04-10T22:53:03.758Z,64.39
2023-04-10T22:55:30.747Z,65.39
2023-04-10T22:57:57.704Z,65.70
2023-04-10T23:00:24.913Z,65.07
2023-04-10T23:02:52.050Z,65.93
2023-04-10T23:05:19.087Z,64.68
2023-04-10T23:07:46.143Z,64.76
2023-04-10T23:10:13.055Z,64.91
2023-04-10T23:12:40.226Z,66.03
2023-04-10T23:15:07.896Z,64.95
2023-04-10T23:17:34.917Z,66.04
2023-04-10T23:20:02.221Z,66.02
2023-04-10T23:22:29.688Z,65.48
2023-04-10T23:24:57.581Z,65.76
2023-04-10T23:27:24.860Z,65.47
2023-04-10T23:29:51.927Z,65.25
2023-04-10T23:32:18.825Z,65.38
2023-04-10T23:34:45.890Z,66.59
2023-04-10T23:37:13.069Z,65.51
2023-04-10T23:39:40.007Z,65.83
2023-04-10T23:42:07.107Z,66.10
2023-04-10T23:44:34.477Z,65.74
2023-04-10T23:47:01.450Z,65.15
2023-04-10T23:49:28.951Z,65.96
2023-04-10T23:51:55.799Z,65.59
2023-04-10T23:54:22.729Z,66.69
2023-04-10T23:56:49.691Z,65.82
2023-04-10T23:59:17.110Z,65.41
